sensor_id;sensor_type;location;lat;lon;timestamp;temperature;humidity
506;DHT22;551;48.524;9.056;2024-02-15T00:01:33;11.40;1.00
506;DHT22;551;48.524;9.056;2024-02-15T00:03:58;11.30;1.00
506;DHT22;551;48.524;9.056;2024-02-15T00:06:24;11.40;1.00
506;DHT22;551;48.524;9.056;2024-02-15T00:08:50;11.30;1.00
506;DHT22;551;48.524;9.056;2024-02-15T00:11:17;11.30;1.00
506;DHT22;551;48.524;9.056;2024-02-15T00:13:43;11.30;1.00
506;DHT22;551;48.524;9.056;2024-02-15T00:16:12;11.30;1.00
506;DHT22;551;48.524;9.056;2024-02-15T00:18:38;11.30;1.00
506;DHT22;551;48.524;9.056;2024-02-15T00:21:05;11.30;1.00
506;DHT22;551;48.524;9.056;2024-02-15T00:23:30;11.30;1.00
506;DHT22;551;48.524;9.056;2024-02-15T00:25:57;11.30;1.00
506;DHT22;551;48.524;9.056;2024-02-15T00:28:23;11.30;1.00
506;DHT22;551;48.524;9.056;2024-02-15T00:30:49;11.30;1.00
506;DHT22;551;48.524;9.056;2024-02-15T00:33:15;11.30;1.00
506;DHT22;551;48.524;9.056;2024-02-15T00:35:41;11.30;1.00
506;DHT22;551;48.524;9.056;2024-02-15T00:38:06;11.30;1.00
506;DHT22;551;48.524;9.056;2024-02-15T00:40:32;11.30;1.00
506;DHT22;551;48.524;9.056;2024-02-15T00:42:58;11.30;1.00
506;DHT22;551;48.524;9.056;2024-02-15T00:45:23;11.30;1.00
506;DHT22;551;48.524;9.056;2024-02-15T00:47:49;11.30;1.00
506;DHT22;551;48.524;9.056;2024-02-15T00:50:15;11.40;1.00
506;DHT22;551;48.524;9.056;2024-02-15T00:52:40;11.40;1.00
506;DHT22;551;48.524;9.056;2024-02-15T00:55:06;11.40;1.00
506;DHT22;551;48.524;9.056;2024-02-15T00:57:32;11.30;1.00
506;DHT22;551;48.524;9.056;2024-02-15T00:59:57;11.30;1.00
506;DHT22;551;48.524;9.056;2024-02-15T01:02:23;11.20;1.00
506;DHT22;551;48.524;9.056;2024-02-15T01:04:51;11.10;1.00
506;DHT22;551;48.524;9.056;2024-02-15T01:07:16;11.00;1.00
506;DHT22;551;48.524;9.056;2024-02-15T01:09:42;10.90;1.00
506;DHT22;551;48.524;9.056;2024-02-15T01:12:07;10.90;1.00
506;DHT22;551;48.524;9.056;2024-02-15T01:14:33;10.70;1.00
506;DHT22;551;48.524;9.056;2024-02-15T01:16:59;10.70;1.00
506;DHT22;551;48.524;9.056;2024-02-15T01:19:24;10.70;1.00
506;DHT22;551;48.524;9.056;2024-02-15T01:21:50;10.60;1.00
506;DHT22;551;48.524;9.056;2024-02-15T01:24:15;10.40;1.00
506;DHT22;551;48.524;9.056;2024-02-15T01:26:41;10.30;1.00
506;DHT22;551;48.524;9.056;2024-02-15T01:29:06;10.30;1.00
506;DHT22;551;48.524;9.056;2024-02-15T01:31:36;10.20;1.00
506;DHT22;551;48.524;9.056;2024-02-15T01:34:01;10.10;1.00
506;DHT22;551;48.524;9.056;2024-02-15T01:36:28;10.00;1.00
506;DHT22;551;48.524;9.056;2024-02-15T01:38:53;10.00;1.00
506;DHT22;551;48.524;9.056;2024-02-15T01:41:19;9.90;1.00
506;DHT22;551;48.524;9.056;2024-02-15T01:43:44;9.80;1.00
506;DHT22;551;48.524;9.056;2024-02-15T01:46:11;9.80;1.00
506;DHT22;551;48.524;9.056;2024-02-15T01:48:39;9.70;1.00
506;DHT22;551;48.524;9.056;2024-02-15T01:51:06;9.60;1.00
506;DHT22;551;48.524;9.056;2024-02-15T01:53:32;9.50;1.00
506;DHT22;551;48.524;9.056;2024-02-15T01:55:59;9.50;1.00
506;DHT22;551;48.524;9.056;2024-02-15T01:58:26;9.40;1.00
506;DHT22;551;48.524;9.056;2024-02-15T02:00:53;9.40;1.00
506;DHT22;551;48.524;9.056;2024-02-15T02:03:21;9.30;1.00
506;DHT22;551;48.524;9.056;2024-02-15T02:05:47;9.30;1.00
506;DHT22;551;48.524;9.056;2024-02-15T02:08:12;9.20;1.00
506;DHT22;551;48.524;9.056;2024-02-15T02:10:39;9.10;1.00
506;DHT22;551;48.524;9.056;2024-02-15T02:13:05;9.10;1.00
506;DHT22;551;48.524;9.056;2024-02-15T02:15:34;9.00;1.00
506;DHT22;551;48.524;9.056;2024-02-15T02:18:04;9.00;1.00
506;DHT22;551;48.524;9.056;2024-02-15T02:20:34;8.90;1.00
506;DHT22;551;48.524;9.056;2024-02-15T02:23:21;8.90;1.00
506;DHT22;551;48.524;9.056;2024-02-15T02:25:50;8.80;1.00
506;DHT22;551;48.524;9.056;2024-02-15T02:28:15;8.70;1.00
506;DHT22;551;48.524;9.056;2024-02-15T02:30:42;8.70;1.00
506;DHT22;551;48.524;9.056;2024-02-15T02:33:13;8.60;1.00
506;DHT22;551;48.524;9.056;2024-02-15T02:35:47;8.60;1.00
506;DHT22;551;48.524;9.056;2024-02-15T02:38:14;8.50;1.00
506;DHT22;551;48.524;9.056;2024-02-15T02:40:40;8.50;1.00
506;DHT22;551;48.524;9.056;2024-02-15T02:43:05;8.50;1.00
506;DHT22;551;48.524;9.056;2024-02-15T02:45:31;8.40;1.00
506;DHT22;551;48.524;9.056;2024-02-15T02:47:57;8.40;1.00
506;DHT22;551;48.524;9.056;2024-02-15T02:50:23;8.30;1.00
506;DHT22;551;48.524;9.056;2024-02-15T02:52:50;8.20;1.00
506;DHT22;551;48.524;9.056;2024-02-15T02:55:16;8.10;1.00
506;DHT22;551;48.524;9.056;2024-02-15T02:57:41;8.10;1.00
506;DHT22;551;48.524;9.056;2024-02-15T03:00:12;8.10;1.00
506;DHT22;551;48.524;9.056;2024-02-15T03:02:43;8.00;1.00
506;DHT22;551;48.524;9.056;2024-02-15T03:05:09;8.00;1.00
506;DHT22;551;48.524;9.056;2024-02-15T03:07:37;8.00;1.00
506;DHT22;551;48.524;9.056;2024-02-15T03:10:03;8.00;1.00
506;DHT22;551;48.524;9.056;2024-02-15T03:12:36;7.90;1.00
506;DHT22;551;48.524;9.056;2024-02-15T03:15:03;7.90;1.00
506;DHT22;551;48.524;9.056;2024-02-15T03:17:29;7.90;1.00
506;DHT22;551;48.524;9.056;2024-02-15T03:19:59;7.80;1.00
506;DHT22;551;48.524;9.056;2024-02-15T03:22:27;7.80;1.00
506;DHT22;551;48.524;9.056;2024-02-15T03:24:54;7.80;1.00
506;DHT22;551;48.524;9.056;2024-02-15T03:27:20;7.80;1.00
506;DHT22;551;48.524;9.056;2024-02-15T03:29:48;7.70;1.00
506;DHT22;551;48.524;9.056;2024-02-15T03:32:14;7.70;1.00
506;DHT22;551;48.524;9.056;2024-02-15T03:34:39;7.60;1.00
506;DHT22;551;48.524;9.056;2024-02-15T03:37:05;7.50;1.00
506;DHT22;551;48.524;9.056;2024-02-15T03:39:30;7.40;1.00
506;DHT22;551;48.524;9.056;2024-02-15T03:41:58;7.40;1.00
506;DHT22;551;48.524;9.056;2024-02-15T03:44:24;7.30;1.00
506;DHT22;551;48.524;9.056;2024-02-15T03:46:51;7.30;1.00
506;DHT22;551;48.524;9.056;2024-02-15T03:49:18;7.20;1.00
506;DHT22;551;48.524;9.056;2024-02-15T03:51:43;7.20;1.00
506;DHT22;551;48.524;9.056;2024-02-15T03:54:10;7.20;1.00
506;DHT22;551;48.524;9.056;2024-02-15T03:56:36;7.20;1.00
506;DHT22;551;48.524;9.056;2024-02-15T03:59:02;7.20;1.00
506;DHT22;551;48.524;9.056;2024-02-15T04:01:31;7.20;1.00
506;DHT22;551;48.524;9.056;2024-02-15T04:03:59;7.20;1.00
506;DHT22;551;48.524;9.056;2024-02-15T04:06:25;7.30;1.00
506;DHT22;551;48.524;9.056;2024-02-15T04:08:53;7.40;1.00
506;DHT22;551;48.524;9.056;2024-02-15T04:11:18;7.50;1.00
506;DHT22;551;48.524;9.056;2024-02-15T04:13:45;7.50;1.00
506;DHT22;551;48.524;9.056;2024-02-15T04:16:10;7.50;1.00
506;DHT22;551;48.524;9.056;2024-02-15T04:18:36;7.60;1.00
506;DHT22;551;48.524;9.056;2024-02-15T04:21:03;7.60;1.00
506;DHT22;551;48.524;9.056;2024-02-15T04:23:31;7.70;1.00
506;DHT22;551;48.524;9.056;2024-02-15T04:25:56;7.70;1.00
506;DHT22;551;48.524;9.056;2024-02-15T04:28:23;7.60;1.00
506;DHT22;551;48.524;9.056;2024-02-15T04:30:48;7.60;1.00
506;DHT22;551;48.524;9.056;2024-02-15T04:33:14;7.60;1.00
506;DHT22;551;48.524;9.056;2024-02-15T04:35:41;7.60;1.00
506;DHT22;551;48.524;9.056;2024-02-15T04:38:06;7.50;1.00
506;DHT22;551;48.524;9.056;2024-02-15T04:40:34;7.50;1.00
506;DHT22;551;48.524;9.056;2024-02-15T04:43:00;7.50;1.00
506;DHT22;551;48.524;9.056;2024-02-15T04:45:29;7.50;1.00
506;DHT22;551;48.524;9.056;2024-02-15T04:47:56;7.50;1.00
506;DHT22;551;48.524;9.056;2024-02-15T04:50:27;7.60;1.00
506;DHT22;551;48.524;9.056;2024-02-15T04:52:52;7.50;1.00
506;DHT22;551;48.524;9.056;2024-02-15T04:55:18;7.50;1.00
506;DHT22;551;48.524;9.056;2024-02-15T04:57:44;7.50;1.00
506;DHT22;551;48.524;9.056;2024-02-15T05:00:10;7.50;1.00
506;DHT22;551;48.524;9.056;2024-02-15T05:02:38;7.40;1.00
506;DHT22;551;48.524;9.056;2024-02-15T05:05:07;7.40;1.00
506;DHT22;551;48.524;9.056;2024-02-15T05:07:33;7.40;1.00
506;DHT22;551;48.524;9.056;2024-02-15T05:09:59;7.40;1.00
506;DHT22;551;48.524;9.056;2024-02-15T05:12:25;7.30;1.00
506;DHT22;551;48.524;9.056;2024-02-15T05:14:51;7.40;1.00
506;DHT22;551;48.524;9.056;2024-02-15T05:17:18;7.40;1.00
506;DHT22;551;48.524;9.056;2024-02-15T05:19:44;7.40;1.00
506;DHT22;551;48.524;9.056;2024-02-15T05:22:10;7.40;1.00
506;DHT22;551;48.524;9.056;2024-02-15T05:24:36;7.40;1.00
506;DHT22;551;48.524;9.056;2024-02-15T05:27:04;7.40;1.00
506;DHT22;551;48.524;9.056;2024-02-15T05:29:30;7.40;1.00
506;DHT22;551;48.524;9.056;2024-02-15T05:31:59;7.40;1.00
506;DHT22;551;48.524;9.056;2024-02-15T05:34:25;7.30;1.00
506;DHT22;551;48.524;9.056;2024-02-15T05:36:50;7.30;1.00
506;DHT22;551;48.524;9.056;2024-02-15T05:39:17;7.30;1.00
506;DHT22;551;48.524;9.056;2024-02-15T05:41:45;7.20;1.00
506;DHT22;551;48.524;9.056;2024-02-15T05:44:11;7.20;1.00
506;DHT22;551;48.524;9.056;2024-02-15T05:46:37;7.10;1.00
506;DHT22;551;48.524;9.056;2024-02-15T05:49:04;7.20;1.00
506;DHT22;551;48.524;9.056;2024-02-15T05:51:30;7.20;1.00
506;DHT22;551;48.524;9.056;2024-02-15T05:53:56;7.10;1.00
506;DHT22;551;48.524;9.056;2024-02-15T05:56:24;7.10;1.00
506;DHT22;551;48.524;9.056;2024-02-15T05:58:51;7.10;1.00
506;DHT22;551;48.524;9.056;2024-02-15T06:01:17;7.00;1.00
506;DHT22;551;48.524;9.056;2024-02-15T06:03:42;6.90;1.00
506;DHT22;551;48.524;9.056;2024-02-15T06:06:09;6.90;1.00
506;DHT22;551;48.524;9.056;2024-02-15T06:08:37;6.90;1.00
506;DHT22;551;48.524;9.056;2024-02-15T06:11:03;6.90;1.00
506;DHT22;551;48.524;9.056;2024-02-15T06:13:31;6.80;1.00
506;DHT22;551;48.524;9.056;2024-02-15T06:15:56;6.90;1.00
506;DHT22;551;48.524;9.056;2024-02-15T06:18:27;6.80;1.00
506;DHT22;551;48.524;9.056;2024-02-15T06:20:55;6.70;1.00
506;DHT22;551;48.524;9.056;2024-02-15T06:23:22;6.70;1.00
506;DHT22;551;48.524;9.056;2024-02-15T06:25:51;6.70;1.00
506;DHT22;551;48.524;9.056;2024-02-15T06:28:18;6.70;1.00
506;DHT22;551;48.524;9.056;2024-02-15T06:31:02;6.70;1.00
506;DHT22;551;48.524;9.056;2024-02-15T06:33:46;6.70;1.00
506;DHT22;551;48.524;9.056;2024-02-15T06:36:30;6.70;1.00
506;DHT22;551;48.524;9.056;2024-02-15T06:39:14;6.70;1.00
506;DHT22;551;48.524;9.056;2024-02-15T06:41:59;6.60;1.00
506;DHT22;551;48.524;9.056;2024-02-15T06:44:26;6.60;1.00
506;DHT22;551;48.524;9.056;2024-02-15T06:46:52;6.70;1.00
506;DHT22;551;48.524;9.056;2024-02-15T06:49:17;6.70;1.00
506;DHT22;551;48.524;9.056;2024-02-15T06:51:43;6.70;1.00
506;DHT22;551;48.524;9.056;2024-02-15T06:54:09;6.70;1.00
506;DHT22;551;48.524;9.056;2024-02-15T06:56:38;6.80;1.00
506;DHT22;551;48.524;9.056;2024-02-15T06:59:08;6.80;1.00
506;DHT22;551;48.524;9.056;2024-02-15T07:01:35;6.90;1.00
506;DHT22;551;48.524;9.056;2024-02-15T07:04:01;7.00;1.00
506;DHT22;551;48.524;9.056;2024-02-15T07:06:28;7.20;1.00
506;DHT22;551;48.524;9.056;2024-02-15T07:08:54;7.30;1.00
506;DHT22;551;48.524;9.056;2024-02-15T07:11:22;7.50;1.00
506;DHT22;551;48.524;9.056;2024-02-15T07:13:48;7.60;1.00
506;DHT22;551;48.524;9.056;2024-02-15T07:16:13;7.80;1.00
506;DHT22;551;48.524;9.056;2024-02-15T07:18:41;8.00;1.00
506;DHT22;551;48.524;9.056;2024-02-15T07:21:06;8.30;1.00
506;DHT22;551;48.524;9.056;2024-02-15T07:23:36;8.80;1.00
506;DHT22;551;48.524;9.056;2024-02-15T07:26:02;9.40;1.00
506;DHT22;551;48.524;9.056;2024-02-15T07:28:29;10.10;1.00
506;DHT22;551;48.524;9.056;2024-02-15T07:30:56;10.50;1.00
506;DHT22;551;48.524;9.056;2024-02-15T07:33:22;10.90;1.00
506;DHT22;551;48.524;9.056;2024-02-15T07:35:49;11.60;1.00
506;DHT22;551;48.524;9.056;2024-02-15T07:38:19;12.10;1.00
506;DHT22;551;48.524;9.056;2024-02-15T07:40:44;12.50;1.00
506;DHT22;551;48.524;9.056;2024-02-15T07:43:10;12.70;1.00
506;DHT22;551;48.524;9.056;2024-02-15T07:45:35;13.30;1.00
506;DHT22;551;48.524;9.056;2024-02-15T07:48:03;13.70;1.00
506;DHT22;551;48.524;9.056;2024-02-15T07:50:32;13.90;1.00
506;DHT22;551;48.524;9.056;2024-02-15T07:52:58;14.10;1.00
506;DHT22;551;48.524;9.056;2024-02-15T07:55:24;14.40;1.00
506;DHT22;551;48.524;9.056;2024-02-15T07:57:50;14.30;1.00
506;DHT22;551;48.524;9.056;2024-02-15T08:00:16;13.90;1.00
506;DHT22;551;48.524;9.056;2024-02-15T08:02:42;13.70;1.00
506;DHT22;551;48.524;9.056;2024-02-15T08:05:12;13.70;1.00
506;DHT22;551;48.524;9.056;2024-02-15T08:07:42;13.60;1.00
506;DHT22;551;48.524;9.056;2024-02-15T08:10:09;13.60;1.00
506;DHT22;551;48.524;9.056;2024-02-15T08:12:42;13.50;1.00
506;DHT22;551;48.524;9.056;2024-02-15T08:15:08;13.40;1.00
506;DHT22;551;48.524;9.056;2024-02-15T08:17:43;13.40;1.00
506;DHT22;551;48.524;9.056;2024-02-15T08:20:12;13.50;1.00
506;DHT22;551;48.524;9.056;2024-02-15T08:22:38;14.00;1.00
506;DHT22;551;48.524;9.056;2024-02-15T08:25:11;14.40;1.00
506;DHT22;551;48.524;9.056;2024-02-15T08:27:41;15.10;1.00
506;DHT22;551;48.524;9.056;2024-02-15T08:30:10;15.50;1.00
506;DHT22;551;48.524;9.056;2024-02-15T08:32:39;15.90;1.00
506;DHT22;551;48.524;9.056;2024-02-15T08:35:08;16.00;1.00
506;DHT22;551;48.524;9.056;2024-02-15T08:37:38;16.00;1.00
506;DHT22;551;48.524;9.056;2024-02-15T08:40:05;15.90;1.00
506;DHT22;551;48.524;9.056;2024-02-15T08:42:40;16.00;1.00
506;DHT22;551;48.524;9.056;2024-02-15T08:45:06;16.10;1.00
506;DHT22;551;48.524;9.056;2024-02-15T08:47:37;16.20;1.00
506;DHT22;551;48.524;9.056;2024-02-15T08:50:04;16.60;1.00
506;DHT22;551;48.524;9.056;2024-02-15T08:52:30;17.20;1.00
506;DHT22;551;48.524;9.056;2024-02-15T08:54:55;17.90;1.00
506;DHT22;551;48.524;9.056;2024-02-15T08:57:23;18.80;1.00
506;DHT22;551;48.524;9.056;2024-02-15T08:59:49;19.70;1.00
506;DHT22;551;48.524;9.056;2024-02-15T09:02:17;20.60;1.00
506;DHT22;551;48.524;9.056;2024-02-15T09:04:43;21.40;1.00
506;DHT22;551;48.524;9.056;2024-02-15T09:07:08;22.00;1.00
506;DHT22;551;48.524;9.056;2024-02-15T09:09:34;22.60;1.00
506;DHT22;551;48.524;9.056;2024-02-15T09:12:05;23.70;1.00
506;DHT22;551;48.524;9.056;2024-02-15T09:14:32;24.50;1.00
506;DHT22;551;48.524;9.056;2024-02-15T09:16:59;25.10;1.00
506;DHT22;551;48.524;9.056;2024-02-15T09:19:24;25.80;1.00
506;DHT22;551;48.524;9.056;2024-02-15T09:21:50;26.20;1.00
506;DHT22;551;48.524;9.056;2024-02-15T09:24:15;26.80;1.00
506;DHT22;551;48.524;9.056;2024-02-15T09:26:41;27.00;1.00
506;DHT22;551;48.524;9.056;2024-02-15T09:29:08;27.20;1.00
506;DHT22;551;48.524;9.056;2024-02-15T09:31:33;27.30;1.00
506;DHT22;551;48.524;9.056;2024-02-15T09:34:01;28.00;1.00
506;DHT22;551;48.524;9.056;2024-02-15T09:36:26;28.40;1.00
506;DHT22;551;48.524;9.056;2024-02-15T09:38:53;28.00;1.00
506;DHT22;551;48.524;9.056;2024-02-15T09:41:19;28.20;1.00
506;DHT22;551;48.524;9.056;2024-02-15T09:43:45;28.00;1.00
506;DHT22;551;48.524;9.056;2024-02-15T09:46:10;27.50;1.00
506;DHT22;551;48.524;9.056;2024-02-15T09:48:39;27.70;1.00
506;DHT22;551;48.524;9.056;2024-02-15T09:51:07;28.10;1.00
506;DHT22;551;48.524;9.056;2024-02-15T09:53:34;28.40;1.00
506;DHT22;551;48.524;9.056;2024-02-15T09:56:00;28.20;1.00
506;DHT22;551;48.524;9.056;2024-02-15T09:58:30;28.50;1.00
506;DHT22;551;48.524;9.056;2024-02-15T10:01:00;28.30;1.00
506;DHT22;551;48.524;9.056;2024-02-15T10:03:26;28.80;1.00
506;DHT22;551;48.524;9.056;2024-02-15T10:05:54;28.70;1.00
506;DHT22;551;48.524;9.056;2024-02-15T10:08:22;28.60;1.00
506;DHT22;551;48.524;9.056;2024-02-15T10:11:06;28.50;1.00
506;DHT22;551;48.524;9.056;2024-02-15T10:13:33;28.80;1.00
506;DHT22;551;48.524;9.056;2024-02-15T10:15:59;28.70;1.00
506;DHT22;551;48.524;9.056;2024-02-15T10:18:24;28.80;1.00
506;DHT22;551;48.524;9.056;2024-02-15T10:20:58;29.00;1.00
506;DHT22;551;48.524;9.056;2024-02-15T10:23:23;29.30;1.00
506;DHT22;551;48.524;9.056;2024-02-15T10:25:49;29.30;1.00
506;DHT22;551;48.524;9.056;2024-02-15T10:28:20;29.70;1.00
506;DHT22;551;48.524;9.056;2024-02-15T10:30:48;29.60;1.00
506;DHT22;551;48.524;9.056;2024-02-15T10:33:28;30.10;1.00
506;DHT22;551;48.524;9.056;2024-02-15T10:36:07;30.20;1.00
506;DHT22;551;48.524;9.056;2024-02-15T10:38:39;30.00;1.00
506;DHT22;551;48.524;9.056;2024-02-15T10:41:06;30.40;1.00
506;DHT22;551;48.524;9.056;2024-02-15T10:43:35;30.70;1.00
506;DHT22;551;48.524;9.056;2024-02-15T10:46:03;30.60;1.00
506;DHT22;551;48.524;9.056;2024-02-15T10:48:29;30.60;1.00
506;DHT22;551;48.524;9.056;2024-02-15T10:50:56;30.30;1.00
506;DHT22;551;48.524;9.056;2024-02-15T10:53:27;30.10;1.00
506;DHT22;551;48.524;9.056;2024-02-15T10:56:12;30.40;1.00
506;DHT22;551;48.524;9.056;2024-02-15T10:58:47;30.60;1.00
506;DHT22;551;48.524;9.056;2024-02-15T11:01:13;30.70;1.00
506;DHT22;551;48.524;9.056;2024-02-15T11:03:49;30.50;1.00
506;DHT22;551;48.524;9.056;2024-02-15T11:06:18;30.90;1.00
506;DHT22;551;48.524;9.056;2024-02-15T11:08:45;31.20;1.00
506;DHT22;551;48.524;9.056;2024-02-15T11:11:11;30.80;1.00
506;DHT22;551;48.524;9.056;2024-02-15T11:13:40;30.50;1.00
506;DHT22;551;48.524;9.056;2024-02-15T11:16:05;30.60;1.00
506;DHT22;551;48.524;9.056;2024-02-15T11:18:47;30.50;1.00
506;DHT22;551;48.524;9.056;2024-02-15T11:21:17;30.90;1.00
506;DHT22;551;48.524;9.056;2024-02-15T11:23:44;31.10;1.00
506;DHT22;551;48.524;9.056;2024-02-15T11:26:42;30.80;1.00
506;DHT22;551;48.524;9.056;2024-02-15T11:29:08;30.60;1.00
506;DHT22;551;48.524;9.056;2024-02-15T11:31:53;30.90;1.00
506;DHT22;551;48.524;9.056;2024-02-15T11:34:44;31.40;1.00
506;DHT22;551;48.524;9.056;2024-02-15T11:40:28;31.50;1.00
506;DHT22;551;48.524;9.056;2024-02-15T11:43:00;31.50;1.00
506;DHT22;551;48.524;9.056;2024-02-15T11:45:27;31.70;1.00
506;DHT22;551;48.524;9.056;2024-02-15T11:47:58;31.30;1.00
506;DHT22;551;48.524;9.056;2024-02-15T11:50:27;30.80;1.00
506;DHT22;551;48.524;9.056;2024-02-15T11:53:02;30.90;1.00
506;DHT22;551;48.524;9.056;2024-02-15T11:55:32;30.60;1.00
506;DHT22;551;48.524;9.056;2024-02-15T11:58:02;30.50;1.00
506;DHT22;551;48.524;9.056;2024-02-15T12:00:31;30.60;1.00
506;DHT22;551;48.524;9.056;2024-02-15T12:03:16;30.50;1.00
506;DHT22;551;48.524;9.056;2024-02-15T12:06:00;30.40;1.00
506;DHT22;551;48.524;9.056;2024-02-15T12:08:46;30.30;1.00
506;DHT22;551;48.524;9.056;2024-02-15T12:11:30;30.40;1.00
506;DHT22;551;48.524;9.056;2024-02-15T12:14:17;30.40;1.00
506;DHT22;551;48.524;9.056;2024-02-15T12:17:03;30.40;1.00
506;DHT22;551;48.524;9.056;2024-02-15T12:19:49;30.50;1.00
506;DHT22;551;48.524;9.056;2024-02-15T12:22:24;30.30;1.00
506;DHT22;551;48.524;9.056;2024-02-15T12:24:58;30.70;1.00
506;DHT22;551;48.524;9.056;2024-02-15T12:27:26;30.90;1.00
506;DHT22;551;48.524;9.056;2024-02-15T12:29:58;31.10;1.00
506;DHT22;551;48.524;9.056;2024-02-15T12:32:25;31.10;1.00
506;DHT22;551;48.524;9.056;2024-02-15T12:34:52;30.90;1.00
506;DHT22;551;48.524;9.056;2024-02-15T12:37:21;30.30;1.00
506;DHT22;551;48.524;9.056;2024-02-15T12:39:47;29.40;1.00
506;DHT22;551;48.524;9.056;2024-02-15T12:42:14;28.90;1.00
506;DHT22;551;48.524;9.056;2024-02-15T12:44:44;28.70;1.00
506;DHT22;551;48.524;9.056;2024-02-15T12:47:19;28.70;1.00
506;DHT22;551;48.524;9.056;2024-02-15T12:49:44;28.60;1.00
506;DHT22;551;48.524;9.056;2024-02-15T12:52:37;28.20;1.00
506;DHT22;551;48.524;9.056;2024-02-15T12:55:07;28.00;1.00
506;DHT22;551;48.524;9.056;2024-02-15T12:57:33;27.80;1.00
506;DHT22;551;48.524;9.056;2024-02-15T12:59:59;27.40;1.00
506;DHT22;551;48.524;9.056;2024-02-15T13:02:25;26.80;1.00
506;DHT22;551;48.524;9.056;2024-02-15T13:04:57;26.50;1.00
506;DHT22;551;48.524;9.056;2024-02-15T13:07:23;26.60;1.00
506;DHT22;551;48.524;9.056;2024-02-15T13:09:48;26.60;1.00
506;DHT22;551;48.524;9.056;2024-02-15T13:12:15;26.60;1.00
506;DHT22;551;48.524;9.056;2024-02-15T13:14:40;26.40;1.00
506;DHT22;551;48.524;9.056;2024-02-15T13:17:06;26.30;1.00
506;DHT22;551;48.524;9.056;2024-02-15T13:19:31;26.20;1.00
506;DHT22;551;48.524;9.056;2024-02-15T13:22:02;26.20;1.00
506;DHT22;551;48.524;9.056;2024-02-15T13:24:28;26.20;1.00
506;DHT22;551;48.524;9.056;2024-02-15T13:26:54;25.80;1.00
506;DHT22;551;48.524;9.056;2024-02-15T13:29:21;25.70;1.00
506;DHT22;551;48.524;9.056;2024-02-15T13:31:48;25.80;1.00
506;DHT22;551;48.524;9.056;2024-02-15T13:34:16;25.50;1.00
506;DHT22;551;48.524;9.056;2024-02-15T13:36:42;25.20;1.00
506;DHT22;551;48.524;9.056;2024-02-15T13:39:07;24.60;1.00
506;DHT22;551;48.524;9.056;2024-02-15T13:41:34;24.20;1.00
506;DHT22;551;48.524;9.056;2024-02-15T13:44:00;23.80;1.00
506;DHT22;551;48.524;9.056;2024-02-15T13:46:25;23.70;1.00
506;DHT22;551;48.524;9.056;2024-02-15T13:48:51;23.60;1.00
506;DHT22;551;48.524;9.056;2024-02-15T13:51:16;23.40;1.00
506;DHT22;551;48.524;9.056;2024-02-15T13:53:42;23.30;1.00
506;DHT22;551;48.524;9.056;2024-02-15T13:56:08;23.00;1.00
506;DHT22;551;48.524;9.056;2024-02-15T13:58:35;22.80;1.00
506;DHT22;551;48.524;9.056;2024-02-15T14:01:00;22.70;1.00
506;DHT22;551;48.524;9.056;2024-02-15T14:03:29;22.50;1.00
506;DHT22;551;48.524;9.056;2024-02-15T14:05:55;22.50;1.00
506;DHT22;551;48.524;9.056;2024-02-15T14:08:20;22.30;1.00
506;DHT22;551;48.524;9.056;2024-02-15T14:10:48;22.20;1.00
506;DHT22;551;48.524;9.056;2024-02-15T14:13:13;22.10;1.00
506;DHT22;551;48.524;9.056;2024-02-15T14:15:39;22.10;1.00
506;DHT22;551;48.524;9.056;2024-02-15T14:18:09;22.00;1.00
506;DHT22;551;48.524;9.056;2024-02-15T14:20:47;22.10;1.00
506;DHT22;551;48.524;9.056;2024-02-15T14:23:13;22.00;1.00
506;DHT22;551;48.524;9.056;2024-02-15T14:25:39;22.00;1.00
506;DHT22;551;48.524;9.056;2024-02-15T14:28:05;22.00;1.00
506;DHT22;551;48.524;9.056;2024-02-15T14:30:33;21.90;1.00
506;DHT22;551;48.524;9.056;2024-02-15T14:33:18;21.80;1.00
506;DHT22;551;48.524;9.056;2024-02-15T14:35:45;21.80;1.00
506;DHT22;551;48.524;9.056;2024-02-15T14:38:12;21.80;1.00
506;DHT22;551;48.524;9.056;2024-02-15T14:40:45;21.70;1.00
506;DHT22;551;48.524;9.056;2024-02-15T14:43:13;21.60;1.00
506;DHT22;551;48.524;9.056;2024-02-15T14:45:40;21.80;1.00
506;DHT22;551;48.524;9.056;2024-02-15T14:48:07;21.70;1.00
506;DHT22;551;48.524;9.056;2024-02-15T14:50:39;21.70;1.00
506;DHT22;551;48.524;9.056;2024-02-15T14:53:05;21.50;1.00
506;DHT22;551;48.524;9.056;2024-02-15T14:55:33;21.40;1.00
506;DHT22;551;48.524;9.056;2024-02-15T14:57:58;21.20;1.00
506;DHT22;551;48.524;9.056;2024-02-15T15:00:24;21.20;1.00
506;DHT22;551;48.524;9.056;2024-02-15T15:02:50;21.10;1.00
506;DHT22;551;48.524;9.056;2024-02-15T15:05:15;21.00;1.00
506;DHT22;551;48.524;9.056;2024-02-15T15:08:00;20.90;1.00
506;DHT22;551;48.524;9.056;2024-02-15T15:10:48;20.70;1.00
506;DHT22;551;48.524;9.056;2024-02-15T15:13:33;20.60;1.00
506;DHT22;551;48.524;9.056;2024-02-15T15:15:59;20.50;1.00
506;DHT22;551;48.524;9.056;2024-02-15T15:18:25;20.20;1.00
506;DHT22;551;48.524;9.056;2024-02-15T15:20:50;20.10;1.00
506;DHT22;551;48.524;9.056;2024-02-15T15:23:16;19.90;1.00
506;DHT22;551;48.524;9.056;2024-02-15T15:25:42;19.70;1.00
506;DHT22;551;48.524;9.056;2024-02-15T15:28:08;19.50;1.00
506;DHT22;551;48.524;9.056;2024-02-15T15:30:33;19.40;1.00
506;DHT22;551;48.524;9.056;2024-02-15T15:33:00;19.30;1.00
506;DHT22;551;48.524;9.056;2024-02-15T15:35:29;19.20;1.00
506;DHT22;551;48.524;9.056;2024-02-15T15:37:56;19.10;1.00
506;DHT22;551;48.524;9.056;2024-02-15T15:40:23;19.00;1.00
506;DHT22;551;48.524;9.056;2024-02-15T15:42:48;18.80;1.00
506;DHT22;551;48.524;9.056;2024-02-15T15:45:14;18.70;1.00
506;DHT22;551;48.524;9.056;2024-02-15T15:47:41;18.60;1.00
506;DHT22;551;48.524;9.056;2024-02-15T15:50:10;18.60;1.00
506;DHT22;551;48.524;9.056;2024-02-15T15:52:40;18.50;1.00
506;DHT22;551;48.524;9.056;2024-02-15T15:55:07;18.40;1.00
506;DHT22;551;48.524;9.056;2024-02-15T15:57:42;18.30;1.00
506;DHT22;551;48.524;9.056;2024-02-15T16:00:11;18.20;1.00
506;DHT22;551;48.524;9.056;2024-02-15T16:02:45;18.10;1.00
506;DHT22;551;48.524;9.056;2024-02-15T16:05:17;18.00;1.00
506;DHT22;551;48.524;9.056;2024-02-15T16:07:44;17.90;1.00
506;DHT22;551;48.524;9.056;2024-02-15T16:10:10;17.80;1.00
506;DHT22;551;48.524;9.056;2024-02-15T16:12:42;17.60;1.00
506;DHT22;551;48.524;9.056;2024-02-15T16:15:09;17.60;1.00
506;DHT22;551;48.524;9.056;2024-02-15T16:17:36;17.50;1.00
506;DHT22;551;48.524;9.056;2024-02-15T16:20:06;17.50;1.00
506;DHT22;551;48.524;9.056;2024-02-15T16:22:37;17.40;1.00
506;DHT22;551;48.524;9.056;2024-02-15T16:25:04;17.30;1.00
506;DHT22;551;48.524;9.056;2024-02-15T16:27:41;17.30;1.00
506;DHT22;551;48.524;9.056;2024-02-15T16:30:09;17.20;1.00
506;DHT22;551;48.524;9.056;2024-02-15T16:32:36;17.00;1.00
506;DHT22;551;48.524;9.056;2024-02-15T16:35:02;17.00;1.00
506;DHT22;551;48.524;9.056;2024-02-15T16:37:35;16.90;1.00
506;DHT22;551;48.524;9.056;2024-02-15T16:40:01;16.70;1.00
506;DHT22;551;48.524;9.056;2024-02-15T16:42:26;16.70;1.00
506;DHT22;551;48.524;9.056;2024-02-15T16:44:54;16.50;1.00
506;DHT22;551;48.524;9.056;2024-02-15T16:47:22;16.50;1.00
506;DHT22;551;48.524;9.056;2024-02-15T16:49:47;16.40;1.00
506;DHT22;551;48.524;9.056;2024-02-15T16:52:13;16.30;1.00
506;DHT22;551;48.524;9.056;2024-02-15T16:54:41;16.10;1.00
506;DHT22;551;48.524;9.056;2024-02-15T16:57:08;16.10;1.00
506;DHT22;551;48.524;9.056;2024-02-15T16:59:33;16.00;1.00
506;DHT22;551;48.524;9.056;2024-02-15T17:01:59;16.00;1.00
506;DHT22;551;48.524;9.056;2024-02-15T17:04:26;15.90;1.00
506;DHT22;551;48.524;9.056;2024-02-15T17:06:51;15.80;1.00
506;DHT22;551;48.524;9.056;2024-02-15T17:09:17;15.80;1.00